Flight Track Log - Related Links

Times and Time Zones

All times are in EST time to prevent confusion due to time zone crossing. See the CEB805 flight status page for this flight to view local times or setup timezone preferences in your user account.

Time Position Orientation Groundspeed Altitude Reporting Facility
EST Latitude Longitude Course Direction KTS MPH feet Rate Location/Type
Fri 01:15:00 AM 14.3443 120.7975 205° Southwest  Level Estimated
Fri 01:16:00 AM 14.2430 120.7540 203° Southwest  Level FlightAware Approximate
Fri 01:17:00 AM 14.1416 120.7105 203° Southwest  Level FlightAware Approximate
Fri 01:18:00 AM 14.0403 120.6670 203° Southwest  Level FlightAware Approximate
Fri 01:19:00 AM 13.9390 120.6236 203° Southwest  Level FlightAware Approximate
Fri 01:20:00 AM 13.8376 120.5802 203° Southwest  Level FlightAware Approximate
Fri 01:21:00 AM 13.7362 120.5369 203° Southwest  Level FlightAware Approximate
Fri 01:22:00 AM 13.6349 120.4936 203° Southwest  Level FlightAware Approximate
Fri 01:23:00 AM 13.5335 120.4503 203° Southwest  Level FlightAware Approximate
Fri 01:24:00 AM 13.4321 120.4071 203° Southwest  Level FlightAware Approximate
Fri 01:25:00 AM 13.3308 120.3639 203° Southwest  Level FlightAware Approximate
Fri 01:26:00 AM 13.2294 120.3208 203° Southwest  Level FlightAware Approximate
Fri 01:27:00 AM 13.1280 120.2777 202° Southwest  Level FlightAware Approximate
Fri 01:28:00 AM 13.0266 120.2346 202° Southwest  Level FlightAware Approximate
Fri 01:29:00 AM 12.9641 120.1419 234° Southwest  Level Estimated
Fri 01:30:00 AM 12.8889 120.0600 227° Southwest  Level FlightAware Approximate
Fri 01:31:00 AM 12.8136 119.9781 227° Southwest  Level FlightAware Approximate
Fri 01:32:00 AM 12.7383 119.8962 227° Southwest  Level FlightAware Approximate
Fri 01:33:00 AM 12.6630 119.8144 227° Southwest  Level FlightAware Approximate
Fri 01:34:00 AM 12.5877 119.7326 227° Southwest  Level FlightAware Approximate
Fri 01:35:00 AM 12.5123 119.6508 227° Southwest  Level FlightAware Approximate
Fri 01:36:00 AM 12.4369 119.5692 227° Southwest  Level FlightAware Approximate
Fri 01:37:00 AM 12.3615 119.4875 227° Southwest  Level FlightAware Approximate
Fri 01:38:00 AM 12.2861 119.4060 227° Southwest  Level FlightAware Approximate
Fri 01:39:00 AM 12.2106 119.3244 227° Southwest  Level FlightAware Approximate
Fri 01:40:00 AM 12.1351 119.2429 227° Southwest  Level FlightAware Approximate
Fri 01:41:00 AM 12.0596 119.1615 227° Southwest  Level FlightAware Approximate
Fri 01:42:00 AM 11.9840 119.0801 227° Southwest  Level FlightAware Approximate
Fri 01:43:00 AM 11.9085 118.9987 226° Southwest  Level FlightAware Approximate
Fri 01:44:00 AM 11.8329 118.9174 226° Southwest  Level FlightAware Approximate
Fri 01:45:00 AM 11.7573 118.8362 226° Southwest  Level FlightAware Approximate
Fri 01:46:00 AM 11.6817 118.7549 226° Southwest  Level FlightAware Approximate
Fri 01:47:00 AM 11.6060 118.6738 226° Southwest  Level FlightAware Approximate
Fri 01:48:00 AM 11.5303 118.5926 226° Southwest  Level FlightAware Approximate
Fri 01:49:00 AM 11.4546 118.5116 226° Southwest  Level FlightAware Approximate
Fri 01:50:00 AM 11.3941 118.4467 226° Southwest  Level FlightAware Approximate
Fri 01:51:00 AM 11.3335 118.3819 226° Southwest  Level FlightAware Approximate
Fri 01:52:00 AM 11.2729 118.3171 226° Southwest  Level FlightAware Approximate
Fri 01:53:00 AM 11.2123 118.2524 226° Southwest  Level FlightAware Approximate
Fri 01:54:00 AM 11.1516 118.1876 226° Southwest  Level FlightAware Approximate
Fri 01:55:00 AM 11.0910 118.1229 226° Southwest  Level FlightAware Approximate
Fri 01:56:00 AM 11.0303 118.0583 226° Southwest  Level FlightAware Approximate
Fri 01:57:00 AM 10.9697 117.9936 226° Southwest  Level FlightAware Approximate
Fri 01:58:00 AM 10.9090 117.9290 226° Southwest  Level FlightAware Approximate
Fri 01:59:00 AM 10.8483 117.8644 226° Southwest  Level FlightAware Approximate
Fri 02:00:00 AM 10.7875 117.7998 226° Southwest  Level FlightAware Approximate
Fri 02:01:00 AM 10.7268 117.7353 226° Southwest  Level FlightAware Approximate
Fri 02:02:00 AM 10.6661 117.6708 226° Southwest  Level FlightAware Approximate
Fri 02:03:00 AM 10.6053 117.6063 226° Southwest  Level FlightAware Approximate
Fri 02:04:00 AM 10.5446 117.5418 226° Southwest  Level FlightAware Approximate
Fri 02:05:00 AM 10.4838 117.4773 226° Southwest  Level FlightAware Approximate
Fri 02:06:00 AM 10.4230 117.4129 226° Southwest  Level FlightAware Approximate
Fri 02:07:00 AM 10.3622 117.3485 226° Southwest  Level FlightAware Approximate
Fri 02:08:00 AM 10.3014 117.2842 226° Southwest  Level FlightAware Approximate
Fri 02:09:00 AM 10.2405 117.2198 226° Southwest  Level FlightAware Approximate
Fri 02:10:00 AM 10.1797 117.1555 226° Southwest  Level FlightAware Approximate
Fri 02:11:00 AM 10.1188 117.0912 226° Southwest  Level FlightAware Approximate
Fri 02:12:00 AM 10.0580 117.0270 226° Southwest  Level FlightAware Approximate
Fri 02:13:00 AM 9.9971 116.9627 226° Southwest  Level FlightAware Approximate
Fri 02:14:00 AM 9.9362 116.8985 226° Southwest  Level FlightAware Approximate
Fri 02:15:00 AM 9.8753 116.8343 226° Southwest  Level FlightAware Approximate
Fri 02:16:00 AM 9.8144 116.7701 226° Southwest  Level FlightAware Approximate
Fri 02:17:00 AM 9.7667 116.6953 233° Southwest  Level Estimated
Fri 02:18:00 AM 9.7133 116.6246 233° Southwest  Level FlightAware Approximate
Fri 02:19:00 AM 9.6598 116.5540 232° Southwest  Level FlightAware Approximate
Fri 02:20:00 AM 9.6063 116.4834 232° Southwest  Level FlightAware Approximate
Fri 02:21:00 AM 9.5528 116.4128 232° Southwest  Level FlightAware Approximate
Fri 02:22:00 AM 9.4993 116.3422 232° Southwest  Level FlightAware Approximate
Fri 02:23:00 AM 9.4458 116.2716 232° Southwest  Level FlightAware Approximate
Fri 02:24:00 AM 9.3923 116.2011 232° Southwest  Level FlightAware Approximate
Fri 02:25:00 AM 9.3387 116.1305 232° Southwest  Level FlightAware Approximate
Fri 02:26:00 AM 9.2852 116.0601 232° Southwest  Level FlightAware Approximate
Fri 02:27:00 AM 9.2316 115.9896 232° Southwest  Level FlightAware Approximate
Fri 02:28:00 AM 9.1780 115.9191 232° Southwest  Level FlightAware Approximate
Fri 02:29:00 AM 9.1244 115.8487 232° Southwest  Level FlightAware Approximate
Fri 02:30:00 AM 9.0708 115.7783 232° Southwest  Level FlightAware Approximate
Fri 02:31:00 AM 9.0172 115.7079 232° Southwest  Level FlightAware Approximate
Fri 02:32:00 AM 8.9635 115.6375 232° Southwest  Level FlightAware Approximate
Fri 02:33:00 AM 8.9099 115.5672 232° Southwest  Level FlightAware Approximate
Fri 02:34:00 AM 8.8562 115.4968 232° Southwest  Level FlightAware Approximate
Fri 02:35:00 AM 8.8025 115.4265 232° Southwest  Level FlightAware Approximate
Fri 02:36:00 AM 8.7488 115.3562 232° Southwest  Level FlightAware Approximate
Fri 02:37:00 AM 8.6951 115.2860 232° Southwest  Level FlightAware Approximate
Fri 02:38:00 AM 8.6414 115.2157 232° Southwest  Level FlightAware Approximate
Fri 02:39:00 AM 8.5877 115.1455 232° Southwest  Level FlightAware Approximate
Fri 02:40:00 AM 8.5339 115.0753 232° Southwest  Level FlightAware Approximate
Fri 02:41:00 AM 8.4801 115.0051 232° Southwest  Level FlightAware Approximate
Fri 02:42:00 AM 8.4264 114.9349 232° Southwest  Level FlightAware Approximate
Fri 02:43:00 AM 8.3726 114.8648 232° Southwest  Level FlightAware Approximate
Fri 02:44:00 AM 8.3188 114.7946 232° Southwest  Level FlightAware Approximate
Fri 02:45:00 AM 8.2650 114.7245 232° Southwest  Level FlightAware Approximate
Fri 02:46:00 AM 8.2112 114.6544 232° Southwest  Level FlightAware Approximate
Fri 02:47:00 AM 8.1573 114.5844 232° Southwest  Level FlightAware Approximate
Fri 02:48:00 AM 8.1035 114.5143 232° Southwest  Level FlightAware Approximate
Fri 02:49:00 AM 8.0496 114.4443 232° Southwest  Level FlightAware Approximate
Fri 02:50:00 AM 7.9957 114.3743 232° Southwest  Level FlightAware Approximate
Fri 02:51:00 AM 7.9419 114.3043 232° Southwest  Level FlightAware Approximate
Fri 02:52:00 AM 7.8880 114.2343 232° Southwest  Level FlightAware Approximate
Fri 02:53:00 AM 7.8341 114.1643 232° Southwest  Level FlightAware Approximate
Fri 02:54:00 AM 7.7802 114.0944 232° Southwest  Level FlightAware Approximate
Fri 02:55:00 AM 7.7262 114.0245 232° Southwest  Level FlightAware Approximate
Fri 02:56:00 AM 7.6723 113.9546 232° Southwest  Level FlightAware Approximate
Fri 02:57:00 AM 7.6183 113.8847 232° Southwest  Level FlightAware Approximate
Fri 02:58:00 AM 7.5644 113.8148 232° Southwest  Level FlightAware Approximate
Fri 02:59:00 AM 7.5104 113.7450 232° Southwest  Level FlightAware Approximate
Fri 03:00:00 AM 7.4564 113.6751 232° Southwest  Level FlightAware Approximate
Fri 03:01:00 AM 7.4024 113.6053 232° Southwest  Level FlightAware Approximate
Fri 03:02:00 AM 7.3484 113.5355 232° Southwest  Level FlightAware Approximate
Fri 03:03:00 AM 7.2944 113.4657 232° Southwest  Level FlightAware Approximate
Fri 03:04:00 AM 7.2404 113.3960 232° Southwest  Level FlightAware Approximate
Fri 03:05:00 AM 7.1863 113.3262 232° Southwest  Level FlightAware Approximate
Fri 03:06:00 AM 7.1323 113.2565 232° Southwest  Level FlightAware Approximate
Fri 03:07:00 AM 7.0782 113.1868 232° Southwest  Level FlightAware Approximate
Fri 03:08:00 AM 7.0242 113.1171 232° Southwest  Level FlightAware Approximate
Fri 03:09:00 AM 6.9701 113.0474 232° Southwest  Level FlightAware Approximate
Fri 03:10:00 AM 6.9160 112.9777 232° Southwest  Level FlightAware Approximate
Fri 03:11:00 AM 6.8619 112.9081 232° Southwest  Level FlightAware Approximate
Fri 03:12:00 AM 6.8078 112.8384 232° Southwest  Level FlightAware Approximate
Fri 03:13:00 AM 6.7537 112.7688 232° Southwest  Level FlightAware Approximate
Fri 03:14:00 AM 6.6995 112.6992 232° Southwest  Level FlightAware Approximate
Fri 03:15:00 AM 6.6454 112.6296 232° Southwest  Level FlightAware Approximate
Fri 03:16:00 AM 6.5912 112.5600 232° Southwest  Level FlightAware Approximate
Fri 03:17:00 AM 6.5371 112.4904 232° Southwest  Level FlightAware Approximate
Fri 03:18:00 AM 6.4829 112.4209 232° Southwest  Level FlightAware Approximate
Fri 03:19:00 AM 6.4287 112.3514 232° Southwest  Level FlightAware Approximate
Fri 03:20:00 AM 6.3745 112.2819 232° Southwest  Level FlightAware Approximate
Fri 03:21:00 AM 6.3204 112.2124 232° Southwest  Level FlightAware Approximate
Fri 03:22:00 AM 6.2661 112.1429 232° Southwest  Level FlightAware Approximate
Fri 03:23:00 AM 6.2119 112.0734 232° Southwest  Level FlightAware Approximate
Fri 03:24:00 AM 6.1577 112.0039 232° Southwest  Level FlightAware Approximate
Fri 03:25:00 AM 6.1035 111.9345 232° Southwest  Level FlightAware Approximate
Fri 03:26:00 AM 6.0487 111.8644 232° Southwest  Level FlightAware Approximate
Fri 03:27:00 AM 5.9940 111.7944 232° Southwest  Level FlightAware Approximate
Fri 03:28:00 AM 5.9392 111.7243 232° Southwest  Level FlightAware Approximate
Fri 03:29:00 AM 5.8845 111.6543 232° Southwest  Level FlightAware Approximate
Fri 03:30:00 AM 5.8297 111.5843 232° Southwest  Level FlightAware Approximate
Fri 03:31:00 AM 5.7749 111.5143 232° Southwest  Level FlightAware Approximate
Fri 03:32:00 AM 5.7201 111.4443 232° Southwest  Level FlightAware Approximate
Fri 03:33:00 AM 5.6653 111.3744 232° Southwest  Level FlightAware Approximate
Fri 03:34:00 AM 5.6105 111.3044 232° Southwest  Level FlightAware Approximate
Fri 03:35:00 AM 5.5557 111.2345 232° Southwest  Level FlightAware Approximate
Fri 03:36:00 AM 5.5009 111.1645 232° Southwest  Level FlightAware Approximate
Fri 03:37:00 AM 5.4461 111.0946 232° Southwest  Level FlightAware Approximate
Fri 03:38:00 AM 5.3912 111.0247 232° Southwest  Level FlightAware Approximate
Fri 03:39:00 AM 5.3364 110.9548 232° Southwest  Level FlightAware Approximate
Fri 03:40:00 AM 5.2815 110.8849 232° Southwest  Level FlightAware Approximate
Fri 03:41:00 AM 5.2267 110.8151 232° Southwest  Level FlightAware Approximate
Fri 03:42:00 AM 5.1718 110.7452 232° Southwest  Level FlightAware Approximate
Fri 03:43:00 AM 5.1169 110.6754 232° Southwest  Level FlightAware Approximate
Fri 03:44:00 AM 5.0620 110.6056 232° Southwest  Level FlightAware Approximate
Fri 03:45:00 AM 5.0071 110.5357 232° Southwest  Level FlightAware Approximate
Fri 03:46:00 AM 4.9642 110.4579 233° Southwest  Level Estimated
Fri 03:47:00 AM 4.9102 110.3874 232° Southwest  Level FlightAware Approximate
Fri 03:48:00 AM 4.8562 110.3169 232° Southwest  Level FlightAware Approximate
Fri 03:49:00 AM 4.8022 110.2464 232° Southwest  Level FlightAware Approximate
Fri 03:50:00 AM 4.7513 110.1799 232° Southwest  Level FlightAware Approximate
Fri 03:51:00 AM 4.7003 110.1134 232° Southwest  Level FlightAware Approximate
Fri 03:52:00 AM 4.6493 110.0469 232° Southwest  Level FlightAware Approximate
Fri 03:53:00 AM 4.5984 109.9804 232° Southwest  Level FlightAware Approximate
Fri 03:54:00 AM 4.5474 109.9139 232° Southwest  Level FlightAware Approximate
Fri 03:55:00 AM 4.4964 109.8474 232° Southwest  Level FlightAware Approximate
Fri 03:56:00 AM 4.4454 109.7810 232° Southwest  Level FlightAware Approximate
Fri 03:57:00 AM 4.3918 109.7112 232° Southwest  Level FlightAware Approximate
Fri 03:58:00 AM 4.3383 109.6414 232° Southwest  Level FlightAware Approximate
Fri 03:59:00 AM 4.2847 109.5716 232° Southwest  Level FlightAware Approximate
Fri 04:00:00 AM 4.2311 109.5019 232° Southwest  Level FlightAware Approximate
Fri 04:01:00 AM 4.1775 109.4322 232° Southwest  Level FlightAware Approximate
Fri 04:02:00 AM 4.1239 109.3624 232° Southwest  Level FlightAware Approximate
Fri 04:03:00 AM 4.0704 109.2927 232° Southwest  Level FlightAware Approximate
Fri 04:04:00 AM 4.0167 109.2230 232° Southwest  Level FlightAware Approximate
Fri 04:05:00 AM 3.9631 109.1533 232° Southwest  Level FlightAware Approximate
Fri 04:06:00 AM 3.9095 109.0836 232° Southwest  Level FlightAware Approximate
Fri 04:07:00 AM 3.8559 109.0139 232° Southwest  Level FlightAware Approximate
Fri 04:08:00 AM 3.8023 108.9442 232° Southwest  Level FlightAware Approximate
Fri 04:09:00 AM 3.7487 108.8746 232° Southwest  Level FlightAware Approximate
Fri 04:10:00 AM 3.6953 108.8052 232° Southwest  Level FlightAware Approximate
Fri 04:11:00 AM 3.6419 108.7359 232° Southwest  Level FlightAware Approximate
Fri 04:12:00 AM 3.5885 108.6666 232° Southwest  Level FlightAware Approximate
Fri 04:13:00 AM 3.5351 108.5973 232° Southwest  Level FlightAware Approximate
Fri 04:14:00 AM 3.4819 108.5283 232° Southwest  Level FlightAware Approximate
Fri 04:15:00 AM 3.4287 108.4593 232° Southwest  Level FlightAware Approximate
Fri 04:16:00 AM 3.3755 108.3903 232° Southwest  Level FlightAware Approximate
Fri 04:17:00 AM 3.3223 108.3213 232° Southwest  Level FlightAware Approximate
Fri 04:18:00 AM 3.2692 108.2523 232° Southwest  Level FlightAware Approximate
Fri 04:19:00 AM 3.2160 108.1834 232° Southwest  Level FlightAware Approximate
Fri 04:20:00 AM 3.1628 108.1144 232° Southwest  Level FlightAware Approximate
Fri 04:21:00 AM 3.1095 108.0455 232° Southwest  Level FlightAware Approximate
Fri 04:22:00 AM 3.0563 107.9765 232° Southwest  Level FlightAware Approximate
Fri 04:23:00 AM 3.0031 107.9076 232° Southwest  Level FlightAware Approximate
Fri 04:24:00 AM 2.9499 107.8387 232° Southwest  Level FlightAware Approximate
Fri 04:25:00 AM 2.8967 107.7698 232° Southwest  Level FlightAware Approximate
Fri 04:26:00 AM 2.8435 107.7008 232° Southwest  Level FlightAware Approximate
Fri 04:27:00 AM 2.7902 107.6319 232° Southwest  Level FlightAware Approximate
Fri 04:28:00 AM 2.7370 107.5630 232° Southwest  Level FlightAware Approximate
Fri 04:29:00 AM 2.6837 107.4941 232° Southwest  Level FlightAware Approximate
Fri 04:30:00 AM 2.6305 107.4252 232° Southwest  Level FlightAware Approximate
Fri 04:31:00 AM 2.5773 107.3564 232° Southwest  Level FlightAware Approximate
Fri 04:32:00 AM 2.5240 107.2875 232° Southwest  Level FlightAware Approximate
Fri 04:33:00 AM 2.4708 107.2186 232° Southwest  Level FlightAware Approximate
Fri 04:34:00 AM 2.4175 107.1497 232° Southwest  Level FlightAware Approximate
Fri 04:35:00 AM 2.3642 107.0809 232° Southwest  Level FlightAware Approximate
Fri 04:36:00 AM 2.3110 107.0120 232° Southwest  Level FlightAware Approximate
Fri 04:37:00 AM 2.2577 106.9432 232° Southwest  Level FlightAware Approximate
Fri 04:38:00 AM 2.2044 106.8744 232° Southwest  Level FlightAware Approximate
Fri 04:39:00 AM 2.1512 106.8055 232° Southwest  Level FlightAware Approximate
Fri 04:40:00 AM 2.0979 106.7367 232° Southwest  Level FlightAware Approximate
Fri 04:41:00 AM 2.0753 106.6526 233° Southwest  Level Estimated
Fri 04:42:00 AM 2.0526 106.5685 233° Southwest  Level Estimated
Fri 04:43:00 AM 2.0300 106.4845 233° Southwest  Level Estimated
Fri 04:44:00 AM 2.0074 106.4004 233° Southwest  Level Estimated
Fri 04:45:00 AM 1.9847 106.3164 233° Southwest  Level Estimated
Fri 04:46:00 AM 1.9621 106.2323 233° Southwest  Level Estimated
Fri 04:47:00 AM 1.9394 106.1482 233° Southwest  Level Estimated
Fri 04:48:00 AM 1.9168 106.0642 233° Southwest  Level Estimated
Fri 04:49:00 AM 1.8941 105.9801 233° Southwest  Level Estimated
Fri 04:50:00 AM 1.8715 105.8961 233° Southwest  Level Estimated
Fri 04:51:00 AM 1.8488 105.8120 233° Southwest  Level Estimated
Fri 04:52:00 AM 1.8261 105.7280 233° Southwest  Level Estimated
Fri 04:53:00 AM 1.8034 105.6440 233° Southwest  Level Estimated
Fri 04:54:00 AM 1.7808 105.5599 233° Southwest  Level Estimated
Fri 04:55:00 AM 1.7581 105.4759 233° Southwest  Level Estimated
Fri 04:56:00 AM 1.7354 105.3918 233° Southwest  Level Estimated
Fri 04:57:00 AM 1.7127 105.3078 233° Southwest  Level Estimated
Fri 04:58:00 AM 1.6900 105.2238 233° Southwest  Level Estimated
Fri 04:59:00 AM 1.6673 105.1397 233° Southwest  Level Estimated
Fri 05:00:00 AM 1.6446 105.0557 233° Southwest  Level Estimated
Fri 05:01:00 AM 1.6219 104.9717 233° Southwest  Level Estimated
Fri 05:02:00 AM 1.5992 104.8877 233° Southwest  Level Estimated
Fri 05:03:00 AM 1.5765 104.8036 233° Southwest  Level Estimated
Fri 05:04:00 AM 1.5538 104.7196 233° Southwest  Level Estimated
Fri 05:05:00 AM 1.5311 104.6356 233° Southwest  Level Estimated
Fri 05:06:00 AM 1.5084 104.5516 233° Southwest  Level Estimated
Fri 05:07:00 AM 1.4856 104.4676 233° Southwest  Level Estimated
Fri 05:08:00 AM 1.4629 104.3836 233° Southwest  Level Estimated
Fri 05:09:00 AM 1.4402 104.2996 233° Southwest  Level Estimated
Fri 05:10:00 AM 1.4174 104.2155 233° Southwest  Level Estimated

Login

Don't have an account? Register now (free) for customized features, flight alerts, and more!